createdAt,value
2019-05-15T00:00:48.160Z,5.90
2019-05-15T00:05:54.596Z,5.80
2019-05-15T00:11:00.946Z,5.80
2019-05-15T00:16:08.414Z,6.00
2019-05-15T00:21:15.210Z,6.10
2019-05-15T00:26:21.847Z,6.10
2019-05-15T00:31:29.204Z,6.10
2019-05-15T00:36:38.201Z,6.00
2019-05-15T00:41:53.338Z,5.90
2019-05-15T00:46:53.061Z,5.90
2019-05-15T00:51:59.160Z,5.90
2019-05-15T00:57:08.420Z,6.10
2019-05-15T01:02:13.496Z,6.20
2019-05-15T01:07:19.033Z,6.20
2019-05-15T01:12:25.232Z,6.00
2019-05-15T01:17:30.727Z,5.90
2019-05-15T01:22:39.329Z,5.70
2019-05-15T01:27:44.908Z,5.60
2019-05-15T01:32:51.331Z,5.60
2019-05-15T01:37:58.564Z,5.60
2019-05-15T01:43:05.031Z,5.50
2019-05-15T01:48:11.502Z,5.40
2019-05-15T01:53:18.677Z,5.40
2019-05-15T01:58:24.388Z,5.30
2019-05-15T02:03:30.053Z,5.30
2019-05-15T02:08:35.480Z,5.20
2019-05-15T02:13:41.082Z,5.10
2019-05-15T02:18:48.884Z,5.10
2019-05-15T02:23:55.517Z,5.10
2019-05-15T02:29:01.186Z,5.10
2019-05-15T02:34:10.194Z,5.00
2019-05-15T02:39:18.733Z,5.00
2019-05-15T02:44:24.076Z,5.00
2019-05-15T02:49:30.321Z,5.00
2019-05-15T02:54:39.936Z,5.10
2019-05-15T02:59:46.023Z,5.10
2019-05-15T03:04:52.835Z,5.10
2019-05-15T03:10:00.139Z,5.00
2019-05-15T03:15:09.585Z,5.00
2019-05-15T03:20:14.527Z,5.10
2019-05-15T03:25:20.014Z,5.10
2019-05-15T03:30:25.454Z,5.20
2019-05-15T03:35:33.148Z,5.20
2019-05-15T03:40:40.189Z,5.20
2019-05-15T03:45:49.048Z,5.20
2019-05-15T03:50:53.384Z,5.20
2019-05-15T03:56:00.180Z,5.10
2019-05-15T04:01:27.659Z,5.10
2019-05-15T04:06:19.044Z,5.10
2019-05-15T04:11:24.129Z,5.10
2019-05-15T04:16:30.953Z,5.00
2019-05-15T04:21:41.545Z,5.00
2019-05-15T04:26:48.793Z,5.00
2019-05-15T04:32:00.980Z,5.10
2019-05-15T04:37:01.690Z,5.10
2019-05-15T04:42:08.190Z,5.00
2019-05-15T04:47:13.908Z,5.00
2019-05-15T04:52:19.535Z,4.90
2019-05-15T04:57:32.575Z,4.90
2019-05-15T05:02:34.027Z,4.90
2019-05-15T05:07:40.996Z,4.90
2019-05-15T05:12:50.762Z,4.90
2019-05-15T05:17:53.989Z,4.90
2019-05-15T05:23:01.904Z,5.00
2019-05-15T05:28:08.800Z,5.10
2019-05-15T05:33:15.108Z,5.40
2019-05-15T05:38:21.351Z,5.50
2019-05-15T05:43:27.164Z,5.70
2019-05-15T05:48:32.702Z,6.00
2019-05-15T05:53:39.060Z,6.20
2019-05-15T05:58:45.732Z,6.40
2019-05-15T06:03:52.668Z,6.40
2019-05-15T06:08:58.449Z,6.70
2019-05-15T06:14:05.229Z,6.60
2019-05-15T06:19:13.609Z,6.70
2019-05-15T06:24:20.275Z,6.80
2019-05-15T06:29:28.264Z,7.20
2019-05-15T06:34:34.883Z,7.50
2019-05-15T06:39:41.603Z,7.50
2019-05-15T06:44:48.358Z,7.60
2019-05-15T06:49:57.866Z,7.80
2019-05-15T06:55:03.692Z,7.80
2019-05-15T07:00:09.327Z,8.10
2019-05-15T07:05:18.333Z,8.30
2019-05-15T07:10:22.332Z,8.30
2019-05-15T07:15:28.824Z,8.20
2019-05-15T07:20:38.838Z,8.40
2019-05-15T07:25:44.605Z,8.30
2019-05-15T07:30:51.197Z,8.70
2019-05-15T07:35:59.029Z,9.00
2019-05-15T07:41:05.859Z,9.40
2019-05-15T07:46:12.320Z,9.40
2019-05-15T07:51:19.200Z,9.40
2019-05-15T07:56:28.768Z,10.10
2019-05-15T08:01:34.364Z,10.00
2019-05-15T08:06:40.074Z,10.50
2019-05-15T08:11:48.494Z,10.80
2019-05-15T08:16:53.620Z,10.60
2019-05-15T08:22:00.506Z,10.60
2019-05-15T08:27:08.200Z,10.50
2019-05-15T08:32:13.310Z,10.10
2019-05-15T08:37:19.431Z,10.30
2019-05-15T08:42:25.083Z,10.80
2019-05-15T08:47:30.398Z,11.40
2019-05-15T08:52:39.102Z,11.70
2019-05-15T08:57:45.050Z,11.70
2019-05-15T09:02:50.575Z,11.40
2019-05-15T09:07:58.081Z,10.70
2019-05-15T09:13:04.509Z,11.50
2019-05-15T09:18:15.871Z,12.20
2019-05-15T09:23:19.554Z,11.60
2019-05-15T09:28:29.689Z,11.20
2019-05-15T09:33:34.633Z,11.80
2019-05-15T09:38:41.788Z,12.70
2019-05-15T09:43:48.650Z,12.90
2019-05-15T09:48:54.496Z,12.30
2019-05-15T09:54:01.119Z,12.30
2019-05-15T09:59:08.875Z,13.40
2019-05-15T10:04:15.190Z,12.90
2019-05-15T10:09:22.020Z,12.00
2019-05-15T10:14:29.614Z,11.80
2019-05-15T10:19:36.726Z,11.90
2019-05-15T10:24:43.632Z,12.20
2019-05-15T10:29:50.050Z,12.30
2019-05-15T10:34:58.604Z,12.00
2019-05-15T10:40:08.942Z,12.10
2019-05-15T10:45:15.619Z,12.20
2019-05-15T10:50:21.287Z,12.00
2019-05-15T10:55:28.888Z,13.00
2019-05-15T11:00:34.558Z,12.90
2019-05-15T11:05:45.619Z,12.30
2019-05-15T11:10:49.287Z,12.20
2019-05-15T11:15:56.878Z,12.10
2019-05-15T11:21:03.687Z,12.20
2019-05-15T11:26:09.228Z,13.30
2019-05-15T11:31:15.993Z,14.20
2019-05-15T11:36:24.302Z,13.60
2019-05-15T11:41:30.070Z,13.10
2019-05-15T11:46:35.702Z,12.90
2019-05-15T11:51:41.857Z,12.00
2019-05-15T11:56:48.920Z,11.80
2019-05-15T12:01:54.712Z,13.20
2019-05-15T12:07:02.586Z,15.30
2019-05-15T12:12:08.868Z,14.80
2019-05-15T12:17:15.493Z,14.40
2019-05-15T12:22:21.656Z,15.50
2019-05-15T12:27:28.400Z,13.40
2019-05-15T12:32:36.690Z,13.60
2019-05-15T12:37:43.826Z,13.50
2019-05-15T13:03:22.013Z,14.00
2019-05-15T13:08:29.003Z,13.80
2019-05-15T13:13:34.925Z,14.10
2019-05-15T13:18:40.509Z,17.40
2019-05-15T13:23:48.104Z,18.30
2019-05-15T13:28:54.552Z,18.50
2019-05-15T13:34:00.920Z,16.50
2019-05-15T13:39:08.054Z,14.70
2019-05-15T13:44:14.684Z,14.30
2019-05-15T13:49:21.357Z,18.90
2019-05-15T13:54:28.607Z,18.40
2019-05-15T13:59:35.162Z,16.40
2019-05-15T14:04:41.522Z,14.80
2019-05-15T14:09:48.452Z,14.20
2019-05-15T14:14:55.415Z,14.90
2019-05-15T14:20:02.136Z,15.30
2019-05-15T14:25:08.823Z,15.00
2019-05-15T14:30:14.956Z,14.30
2019-05-15T14:35:20.904Z,13.90
2019-05-15T14:40:26.920Z,13.20
2019-05-15T14:45:33.665Z,12.90
2019-05-15T14:50:43.431Z,12.90
2019-05-15T14:55:50.519Z,13.00
2019-05-15T15:01:02.306Z,13.40
2019-05-15T15:06:05.289Z,13.80
2019-05-15T15:11:11.533Z,14.40
2019-05-15T15:16:19.399Z,14.20
2019-05-15T15:21:25.645Z,14.40
2019-05-15T15:26:32.347Z,14.10
2019-05-15T15:31:39.350Z,13.70
2019-05-15T15:36:45.610Z,13.50
2019-05-15T15:41:51.479Z,13.60
2019-05-15T15:46:59.102Z,13.40
2019-05-15T15:52:08.571Z,13.50
2019-05-15T15:57:14.802Z,13.50
2019-05-15T16:02:22.924Z,13.70
2019-05-15T16:07:29.604Z,14.40
2019-05-15T16:12:35.134Z,14.50
2019-05-15T16:17:41.892Z,14.00
2019-05-15T16:22:48.602Z,13.40
2019-05-15T16:27:57.793Z,12.90
2019-05-15T16:33:04.418Z,12.60
2019-05-15T16:38:11.022Z,12.60
2019-05-15T16:43:17.801Z,12.80
2019-05-15T16:48:24.565Z,12.90
2019-05-15T16:53:30.166Z,12.70
2019-05-15T16:58:38.300Z,12.60
2019-05-15T17:03:43.275Z,12.60
2019-05-15T17:08:49.650Z,12.50
2019-05-15T17:13:59.120Z,12.20
2019-05-15T17:19:04.196Z,12.00
2019-05-15T17:24:09.956Z,12.10
2019-05-15T17:29:15.501Z,12.00
2019-05-15T17:34:22.112Z,11.90
2019-05-15T17:39:36.500Z,12.00
2019-05-15T17:44:38.224Z,11.90
2019-05-15T17:49:48.214Z,11.90
2019-05-15T17:54:53.836Z,11.90
2019-05-15T18:00:00.643Z,11.80
2019-05-15T18:05:06.419Z,11.80
2019-05-15T18:10:12.405Z,11.60
2019-05-15T18:15:18.658Z,11.50
2019-05-15T18:20:28.881Z,11.40
2019-05-15T18:25:33.794Z,11.30
2019-05-15T18:30:39.225Z,11.20
2019-05-15T18:35:44.688Z,11.10
2019-05-15T18:40:51.475Z,11.00
2019-05-15T18:45:58.465Z,10.90
2019-05-15T18:51:04.394Z,10.90
2019-05-15T18:56:09.737Z,10.80
2019-05-15T19:01:17.673Z,10.70
2019-05-15T19:06:22.865Z,10.70
2019-05-15T19:11:28.835Z,10.60
2019-05-15T19:16:38.556Z,10.50
2019-05-15T19:21:43.671Z,10.50
2019-05-15T19:26:49.274Z,10.50
2019-05-15T19:31:56.184Z,10.30
2019-05-15T19:37:01.725Z,10.30
2019-05-15T19:42:08.897Z,10.20
2019-05-15T19:47:14.856Z,10.20
2019-05-15T19:52:21.770Z,10.20
2019-05-15T19:57:28.162Z,10.20
2019-05-15T20:02:35.006Z,10.10
2019-05-15T20:07:41.195Z,10.00
2019-05-15T20:12:48.065Z,9.80
2019-05-15T20:17:54.908Z,9.70
2019-05-15T20:23:01.521Z,9.60
2019-05-15T20:28:08.462Z,9.50
2019-05-15T20:33:15.108Z,9.50
2019-05-15T20:38:20.946Z,9.50
2019-05-15T20:43:27.562Z,9.50
2019-05-15T20:48:33.505Z,9.40
2019-05-15T20:53:39.430Z,9.30
2019-05-15T20:58:45.201Z,9.20
2019-05-15T21:03:51.221Z,9.20
2019-05-15T21:08:57.879Z,9.10
2019-05-15T21:14:03.608Z,9.10
2019-05-15T21:19:09.262Z,9.00
2019-05-15T21:24:14.988Z,8.90
2019-05-15T21:29:20.793Z,8.80
2019-05-15T21:34:37.572Z,8.60
2019-05-15T21:39:33.988Z,8.60
2019-05-15T21:44:39.804Z,8.40
2019-05-15T21:49:48.198Z,8.30
2019-05-15T21:54:54.913Z,8.20
2019-05-15T22:00:01.519Z,8.10
2019-05-15T22:05:08.612Z,8.10
2019-05-15T22:10:15.210Z,8.00
2019-05-15T22:15:20.871Z,7.90
2019-05-15T22:20:30.149Z,7.80
2019-05-15T22:25:38.400Z,7.80
2019-05-15T22:30:44.157Z,7.80
2019-05-15T22:35:50.813Z,7.70
2019-05-15T22:40:58.023Z,7.60
2019-05-15T22:46:04.765Z,7.60
2019-05-15T22:51:11.578Z,7.50
2019-05-15T22:56:18.165Z,7.50
2019-05-15T23:01:24.960Z,7.40
2019-05-15T23:06:32.300Z,7.10
2019-05-15T23:11:39.312Z,6.80
2019-05-15T23:16:48.264Z,6.40
2019-05-15T23:21:55.176Z,6.20
2019-05-15T23:27:02.215Z,6.20
2019-05-15T23:32:08.362Z,6.20
2019-05-15T23:37:14.669Z,6.30
2019-05-15T23:42:21.431Z,6.50
2019-05-15T23:47:28.585Z,6.60
2019-05-15T23:52:34.165Z,6.70
2019-05-15T23:57:40.598Z,6.80
